sensor_id;sensor_type;location;lat;lon;timestamp;P1;durP1;ratioP1;P2;durP2;ratioP2
58898;SDS011;44680;48.342;7.856;2022-12-18T00:00:42;50.53;;;19.33;;
58898;SDS011;44680;48.342;7.856;2022-12-18T00:03:08;50.55;;;20.50;;
58898;SDS011;44680;48.342;7.856;2022-12-18T00:05:34;45.72;;;20.33;;
58898;SDS011;44680;48.342;7.856;2022-12-18T00:07:59;49.35;;;18.88;;
58898;SDS011;44680;48.342;7.856;2022-12-18T00:10:24;49.88;;;20.80;;
58898;SDS011;44680;48.342;7.856;2022-12-18T00:12:50;47.85;;;19.73;;
58898;SDS011;44680;48.342;7.856;2022-12-18T00:15:15;52.88;;;20.85;;
58898;SDS011;44680;48.342;7.856;2022-12-18T00:17:40;47.50;;;18.92;;
58898;SDS011;44680;48.342;7.856;2022-12-18T00:20:06;46.75;;;18.95;;
58898;SDS011;44680;48.342;7.856;2022-12-18T00:22:32;46.67;;;18.08;;
58898;SDS011;44680;48.342;7.856;2022-12-18T00:24:57;47.38;;;19.58;;
58898;SDS011;44680;48.342;7.856;2022-12-18T00:27:22;44.25;;;18.52;;
58898;SDS011;44680;48.342;7.856;2022-12-18T00:29:48;45.55;;;18.95;;
58898;SDS011;44680;48.342;7.856;2022-12-18T00:32:13;44.50;;;18.48;;
58898;SDS011;44680;48.342;7.856;2022-12-18T00:37:06;49.40;;;20.40;;
58898;SDS011;44680;48.342;7.856;2022-12-18T00:39:31;49.33;;;18.15;;
58898;SDS011;44680;48.342;7.856;2022-12-18T00:41:57;41.13;;;17.42;;
58898;SDS011;44680;48.342;7.856;2022-12-18T00:44:41;42.53;;;17.33;;
58898;SDS011;44680;48.342;7.856;2022-12-18T00:47:06;42.45;;;16.73;;
58898;SDS011;44680;48.342;7.856;2022-12-18T00:49:31;47.15;;;17.73;;
58898;SDS011;44680;48.342;7.856;2022-12-18T00:51:57;45.50;;;18.75;;
58898;SDS011;44680;48.342;7.856;2022-12-18T00:54:22;48.08;;;19.30;;
58898;SDS011;44680;48.342;7.856;2022-12-18T00:56:47;59.30;;;20.48;;
58898;SDS011;44680;48.342;7.856;2022-12-18T00:59:13;50.35;;;19.55;;
58898;SDS011;44680;48.342;7.856;2022-12-18T01:01:38;47.97;;;18.75;;
58898;SDS011;44680;48.342;7.856;2022-12-18T01:04:04;54.88;;;21.17;;
58898;SDS011;44680;48.342;7.856;2022-12-18T01:06:30;48.42;;;19.15;;
58898;SDS011;44680;48.342;7.856;2022-12-18T01:08:56;51.85;;;19.33;;
58898;SDS011;44680;48.342;7.856;2022-12-18T01:11:21;49.53;;;19.10;;
58898;SDS011;44680;48.342;7.856;2022-12-18T01:13:47;45.05;;;17.98;;
58898;SDS011;44680;48.342;7.856;2022-12-18T01:16:13;48.75;;;18.75;;
58898;SDS011;44680;48.342;7.856;2022-12-18T01:18:39;51.05;;;19.80;;
58898;SDS011;44680;48.342;7.856;2022-12-18T01:21:08;49.90;;;19.58;;
58898;SDS011;44680;48.342;7.856;2022-12-18T01:23:35;59.78;;;21.13;;
58898;SDS011;44680;48.342;7.856;2022-12-18T01:26:04;57.60;;;21.08;;
58898;SDS011;44680;48.342;7.856;2022-12-18T01:28:30;48.92;;;20.63;;
58898;SDS011;44680;48.342;7.856;2022-12-18T01:30:56;52.50;;;19.58;;
58898;SDS011;44680;48.342;7.856;2022-12-18T01:33:21;49.55;;;19.65;;
58898;SDS011;44680;48.342;7.856;2022-12-18T01:35:46;46.92;;;20.02;;
58898;SDS011;44680;48.342;7.856;2022-12-18T01:38:11;47.67;;;18.13;;
58898;SDS011;44680;48.342;7.856;2022-12-18T01:40:37;48.63;;;19.05;;
58898;SDS011;44680;48.342;7.856;2022-12-18T01:43:02;44.97;;;18.40;;
58898;SDS011;44680;48.342;7.856;2022-12-18T01:45:28;56.38;;;20.85;;
58898;SDS011;44680;48.342;7.856;2022-12-18T01:48:05;65.03;;;22.67;;
58898;SDS011;44680;48.342;7.856;2022-12-18T01:53:07;53.05;;;20.70;;
58898;SDS011;44680;48.342;7.856;2022-12-18T01:55:40;51.00;;;19.73;;
58898;SDS011;44680;48.342;7.856;2022-12-18T01:58:09;48.67;;;18.60;;
58898;SDS011;44680;48.342;7.856;2022-12-18T02:00:34;46.75;;;19.45;;
58898;SDS011;44680;48.342;7.856;2022-12-18T02:02:59;50.30;;;19.45;;
58898;SDS011;44680;48.342;7.856;2022-12-18T02:18:59;43.05;;;18.13;;
58898;SDS011;44680;48.342;7.856;2022-12-18T02:21:45;48.67;;;18.40;;
58898;SDS011;44680;48.342;7.856;2022-12-18T02:24:28;53.92;;;17.77;;
58898;SDS011;44680;48.342;7.856;2022-12-18T02:26:59;46.50;;;18.45;;
58898;SDS011;44680;48.342;7.856;2022-12-18T02:29:29;48.92;;;19.63;;
58898;SDS011;44680;48.342;7.856;2022-12-18T02:31:59;46.10;;;17.48;;
58898;SDS011;44680;48.342;7.856;2022-12-18T02:34:26;49.42;;;19.50;;
58898;SDS011;44680;48.342;7.856;2022-12-18T02:36:53;47.08;;;18.15;;
58898;SDS011;44680;48.342;7.856;2022-12-18T02:39:19;45.38;;;18.92;;
58898;SDS011;44680;48.342;7.856;2022-12-18T02:41:46;44.67;;;17.65;;
58898;SDS011;44680;48.342;7.856;2022-12-18T02:44:12;49.63;;;19.35;;
58898;SDS011;44680;48.342;7.856;2022-12-18T02:49:13;46.58;;;18.17;;
58898;SDS011;44680;48.342;7.856;2022-12-18T02:54:53;44.03;;;17.80;;
58898;SDS011;44680;48.342;7.856;2022-12-18T03:00:11;49.67;;;19.42;;
58898;SDS011;44680;48.342;7.856;2022-12-18T03:07:41;53.10;;;19.88;;
58898;SDS011;44680;48.342;7.856;2022-12-18T03:10:11;46.75;;;19.17;;
58898;SDS011;44680;48.342;7.856;2022-12-18T03:12:40;49.80;;;19.83;;
58898;SDS011;44680;48.342;7.856;2022-12-18T03:15:13;46.10;;;18.75;;
58898;SDS011;44680;48.342;7.856;2022-12-18T03:17:42;53.13;;;20.55;;
58898;SDS011;44680;48.342;7.856;2022-12-18T03:20:12;55.92;;;20.10;;
58898;SDS011;44680;48.342;7.856;2022-12-18T03:22:40;55.30;;;19.77;;
58898;SDS011;44680;48.342;7.856;2022-12-18T03:25:09;44.05;;;18.23;;
58898;SDS011;44680;48.342;7.856;2022-12-18T03:27:36;54.08;;;19.85;;
58898;SDS011;44680;48.342;7.856;2022-12-18T03:30:04;48.40;;;20.27;;
58898;SDS011;44680;48.342;7.856;2022-12-18T03:32:40;50.03;;;19.67;;
58898;SDS011;44680;48.342;7.856;2022-12-18T03:35:08;49.58;;;19.60;;
58898;SDS011;44680;48.342;7.856;2022-12-18T03:37:36;48.78;;;21.08;;
58898;SDS011;44680;48.342;7.856;2022-12-18T03:40:02;50.55;;;20.98;;
58898;SDS011;44680;48.342;7.856;2022-12-18T03:55:20;43.42;;;18.92;;
58898;SDS011;44680;48.342;7.856;2022-12-18T03:57:47;48.90;;;19.88;;
58898;SDS011;44680;48.342;7.856;2022-12-18T04:00:14;46.42;;;19.00;;
58898;SDS011;44680;48.342;7.856;2022-12-18T04:02:43;50.63;;;19.45;;
58898;SDS011;44680;48.342;7.856;2022-12-18T04:05:11;46.40;;;19.58;;
58898;SDS011;44680;48.342;7.856;2022-12-18T04:07:37;44.22;;;17.27;;
58898;SDS011;44680;48.342;7.856;2022-12-18T04:10:03;42.83;;;18.52;;
58898;SDS011;44680;48.342;7.856;2022-12-18T04:12:31;46.90;;;18.73;;
58898;SDS011;44680;48.342;7.856;2022-12-18T04:14:56;47.72;;;18.58;;
58898;SDS011;44680;48.342;7.856;2022-12-18T04:17:22;47.90;;;19.35;;
58898;SDS011;44680;48.342;7.856;2022-12-18T04:19:47;43.45;;;18.77;;
58898;SDS011;44680;48.342;7.856;2022-12-18T04:22:12;47.58;;;18.95;;
58898;SDS011;44680;48.342;7.856;2022-12-18T04:24:38;46.05;;;18.50;;
58898;SDS011;44680;48.342;7.856;2022-12-18T04:27:03;46.40;;;19.10;;
58898;SDS011;44680;48.342;7.856;2022-12-18T04:29:29;45.70;;;19.00;;
58898;SDS011;44680;48.342;7.856;2022-12-18T04:31:54;47.97;;;19.20;;
58898;SDS011;44680;48.342;7.856;2022-12-18T04:34:20;47.72;;;18.88;;
58898;SDS011;44680;48.342;7.856;2022-12-18T04:36:45;48.25;;;18.77;;
58898;SDS011;44680;48.342;7.856;2022-12-18T04:39:11;43.80;;;18.75;;
58898;SDS011;44680;48.342;7.856;2022-12-18T04:41:36;48.13;;;20.15;;
58898;SDS011;44680;48.342;7.856;2022-12-18T04:44:02;45.33;;;18.48;;
58898;SDS011;44680;48.342;7.856;2022-12-18T04:46:27;48.28;;;19.17;;
58898;SDS011;44680;48.342;7.856;2022-12-18T04:48:52;49.78;;;19.52;;
58898;SDS011;44680;48.342;7.856;2022-12-18T04:51:18;50.75;;;20.08;;
58898;SDS011;44680;48.342;7.856;2022-12-18T04:53:43;46.75;;;18.67;;
58898;SDS011;44680;48.342;7.856;2022-12-18T04:56:12;43.78;;;19.67;;
58898;SDS011;44680;48.342;7.856;2022-12-18T04:58:39;45.03;;;18.63;;
58898;SDS011;44680;48.342;7.856;2022-12-18T05:01:06;46.20;;;19.75;;
58898;SDS011;44680;48.342;7.856;2022-12-18T05:03:32;45.50;;;18.95;;
58898;SDS011;44680;48.342;7.856;2022-12-18T05:05:58;44.63;;;18.75;;
58898;SDS011;44680;48.342;7.856;2022-12-18T05:08:24;43.25;;;18.00;;
58898;SDS011;44680;48.342;7.856;2022-12-18T05:10:49;42.05;;;17.48;;
58898;SDS011;44680;48.342;7.856;2022-12-18T05:13:14;48.17;;;20.02;;
58898;SDS011;44680;48.342;7.856;2022-12-18T05:15:40;50.78;;;20.02;;
58898;SDS011;44680;48.342;7.856;2022-12-18T05:18:06;55.20;;;21.08;;
58898;SDS011;44680;48.342;7.856;2022-12-18T05:20:32;46.83;;;17.85;;
58898;SDS011;44680;48.342;7.856;2022-12-18T05:22:57;46.30;;;18.48;;
58898;SDS011;44680;48.342;7.856;2022-12-18T05:25:23;52.42;;;20.23;;
58898;SDS011;44680;48.342;7.856;2022-12-18T05:27:48;47.58;;;18.67;;
58898;SDS011;44680;48.342;7.856;2022-12-18T05:30:14;43.00;;;19.73;;
58898;SDS011;44680;48.342;7.856;2022-12-18T05:32:40;47.35;;;19.00;;
58898;SDS011;44680;48.342;7.856;2022-12-18T05:35:07;45.08;;;18.35;;
58898;SDS011;44680;48.342;7.856;2022-12-18T05:37:33;52.80;;;20.67;;
58898;SDS011;44680;48.342;7.856;2022-12-18T05:39:59;51.78;;;18.48;;
58898;SDS011;44680;48.342;7.856;2022-12-18T05:42:24;54.67;;;20.08;;
58898;SDS011;44680;48.342;7.856;2022-12-18T05:44:50;51.38;;;19.70;;
58898;SDS011;44680;48.342;7.856;2022-12-18T05:47:15;49.13;;;19.33;;
58898;SDS011;44680;48.342;7.856;2022-12-18T05:49:41;48.92;;;19.77;;
58898;SDS011;44680;48.342;7.856;2022-12-18T05:52:06;59.25;;;21.63;;
58898;SDS011;44680;48.342;7.856;2022-12-18T05:54:31;54.30;;;21.13;;
58898;SDS011;44680;48.342;7.856;2022-12-18T05:56:57;48.15;;;19.60;;
58898;SDS011;44680;48.342;7.856;2022-12-18T05:59:23;49.80;;;21.17;;
58898;SDS011;44680;48.342;7.856;2022-12-18T06:01:48;54.08;;;20.73;;
58898;SDS011;44680;48.342;7.856;2022-12-18T06:04:14;51.42;;;20.17;;
58898;SDS011;44680;48.342;7.856;2022-12-18T06:06:39;65.22;;;24.98;;
58898;SDS011;44680;48.342;7.856;2022-12-18T06:09:05;52.40;;;20.48;;
58898;SDS011;44680;48.342;7.856;2022-12-18T06:11:35;65.32;;;21.92;;
58898;SDS011;44680;48.342;7.856;2022-12-18T06:14:01;54.60;;;22.58;;
58898;SDS011;44680;48.342;7.856;2022-12-18T06:16:27;51.38;;;19.35;;
58898;SDS011;44680;48.342;7.856;2022-12-18T06:18:53;48.25;;;20.17;;
58898;SDS011;44680;48.342;7.856;2022-12-18T06:21:21;56.72;;;20.30;;
58898;SDS011;44680;48.342;7.856;2022-12-18T06:23:46;55.10;;;20.60;;
58898;SDS011;44680;48.342;7.856;2022-12-18T06:26:12;49.83;;;20.30;;
58898;SDS011;44680;48.342;7.856;2022-12-18T06:28:38;52.72;;;21.30;;
58898;SDS011;44680;48.342;7.856;2022-12-18T06:31:03;50.65;;;19.40;;
58898;SDS011;44680;48.342;7.856;2022-12-18T06:33:29;48.70;;;19.05;;
58898;SDS011;44680;48.342;7.856;2022-12-18T06:36:02;48.13;;;20.13;;
58898;SDS011;44680;48.342;7.856;2022-12-18T06:38:29;44.92;;;18.65;;
58898;SDS011;44680;48.342;7.856;2022-12-18T06:40:55;49.00;;;19.75;;
58898;SDS011;44680;48.342;7.856;2022-12-18T06:43:21;46.90;;;19.50;;
58898;SDS011;44680;48.342;7.856;2022-12-18T06:45:46;52.85;;;19.45;;
58898;SDS011;44680;48.342;7.856;2022-12-18T06:48:17;44.08;;;17.98;;
58898;SDS011;44680;48.342;7.856;2022-12-18T06:50:43;48.28;;;18.52;;
58898;SDS011;44680;48.342;7.856;2022-12-18T06:53:08;50.42;;;18.42;;
58898;SDS011;44680;48.342;7.856;2022-12-18T06:55:33;45.25;;;18.77;;
58898;SDS011;44680;48.342;7.856;2022-12-18T06:57:59;44.65;;;19.00;;
58898;SDS011;44680;48.342;7.856;2022-12-18T07:00:24;50.13;;;18.60;;
58898;SDS011;44680;48.342;7.856;2022-12-18T07:02:49;43.50;;;18.38;;
58898;SDS011;44680;48.342;7.856;2022-12-18T07:05:15;45.10;;;18.10;;
58898;SDS011;44680;48.342;7.856;2022-12-18T07:07:40;45.35;;;18.02;;
58898;SDS011;44680;48.342;7.856;2022-12-18T07:10:05;45.15;;;18.33;;
58898;SDS011;44680;48.342;7.856;2022-12-18T07:12:31;43.42;;;18.00;;
58898;SDS011;44680;48.342;7.856;2022-12-18T07:14:56;40.53;;;17.42;;
58898;SDS011;44680;48.342;7.856;2022-12-18T07:17:21;43.78;;;18.80;;
58898;SDS011;44680;48.342;7.856;2022-12-18T07:19:47;45.30;;;18.13;;
58898;SDS011;44680;48.342;7.856;2022-12-18T07:22:12;42.33;;;18.15;;
58898;SDS011;44680;48.342;7.856;2022-12-18T07:24:37;46.25;;;17.83;;
58898;SDS011;44680;48.342;7.856;2022-12-18T07:27:03;44.97;;;17.92;;
58898;SDS011;44680;48.342;7.856;2022-12-18T07:29:29;42.15;;;17.98;;
58898;SDS011;44680;48.342;7.856;2022-12-18T07:31:54;46.28;;;19.17;;
58898;SDS011;44680;48.342;7.856;2022-12-18T07:34:20;42.28;;;18.90;;
58898;SDS011;44680;48.342;7.856;2022-12-18T07:36:45;41.20;;;17.83;;
58898;SDS011;44680;48.342;7.856;2022-12-18T07:39:11;45.08;;;16.52;;
58898;SDS011;44680;48.342;7.856;2022-12-18T07:41:36;47.10;;;18.13;;
58898;SDS011;44680;48.342;7.856;2022-12-18T07:44:02;43.60;;;17.08;;
58898;SDS011;44680;48.342;7.856;2022-12-18T07:46:27;40.88;;;17.40;;
58898;SDS011;44680;48.342;7.856;2022-12-18T07:48:52;42.10;;;18.00;;
58898;SDS011;44680;48.342;7.856;2022-12-18T07:51:18;40.63;;;17.90;;
58898;SDS011;44680;48.342;7.856;2022-12-18T07:53:43;42.35;;;17.45;;
58898;SDS011;44680;48.342;7.856;2022-12-18T07:56:10;46.65;;;18.98;;
58898;SDS011;44680;48.342;7.856;2022-12-18T07:58:37;43.95;;;17.92;;
58898;SDS011;44680;48.342;7.856;2022-12-18T08:01:03;42.17;;;17.17;;
58898;SDS011;44680;48.342;7.856;2022-12-18T08:03:32;43.65;;;17.48;;
58898;SDS011;44680;48.342;7.856;2022-12-18T08:05:58;40.67;;;17.70;;
58898;SDS011;44680;48.342;7.856;2022-12-18T08:08:28;43.65;;;18.17;;
58898;SDS011;44680;48.342;7.856;2022-12-18T08:10:53;48.60;;;19.98;;
58898;SDS011;44680;48.342;7.856;2022-12-18T08:13:18;45.72;;;18.30;;
58898;SDS011;44680;48.342;7.856;2022-12-18T08:15:44;44.35;;;18.42;;
58898;SDS011;44680;48.342;7.856;2022-12-18T08:18:09;45.72;;;17.48;;
58898;SDS011;44680;48.342;7.856;2022-12-18T08:20:34;50.08;;;19.50;;
58898;SDS011;44680;48.342;7.856;2022-12-18T08:23:00;42.00;;;18.45;;
58898;SDS011;44680;48.342;7.856;2022-12-18T08:25:25;48.35;;;19.75;;
58898;SDS011;44680;48.342;7.856;2022-12-18T08:27:50;46.00;;;17.83;;
58898;SDS011;44680;48.342;7.856;2022-12-18T08:30:16;48.38;;;18.90;;
58898;SDS011;44680;48.342;7.856;2022-12-18T08:32:41;47.33;;;19.15;;
58898;SDS011;44680;48.342;7.856;2022-12-18T08:35:07;49.55;;;19.88;;
58898;SDS011;44680;48.342;7.856;2022-12-18T08:37:33;52.05;;;20.77;;
58898;SDS011;44680;48.342;7.856;2022-12-18T08:39:58;48.85;;;20.33;;
58898;SDS011;44680;48.342;7.856;2022-12-18T08:42:24;45.72;;;18.77;;
58898;SDS011;44680;48.342;7.856;2022-12-18T08:45:08;44.13;;;18.23;;
58898;SDS011;44680;48.342;7.856;2022-12-18T08:47:34;41.15;;;17.75;;
58898;SDS011;44680;48.342;7.856;2022-12-18T08:49:59;38.95;;;17.00;;
58898;SDS011;44680;48.342;7.856;2022-12-18T08:52:24;41.65;;;19.05;;
58898;SDS011;44680;48.342;7.856;2022-12-18T08:54:50;41.65;;;18.60;;
58898;SDS011;44680;48.342;7.856;2022-12-18T08:57:15;46.10;;;18.52;;
58898;SDS011;44680;48.342;7.856;2022-12-18T08:59:41;47.97;;;19.70;;
58898;SDS011;44680;48.342;7.856;2022-12-18T09:02:07;87.32;;;34.67;;
58898;SDS011;44680;48.342;7.856;2022-12-18T09:04:34;51.58;;;23.50;;
58898;SDS011;44680;48.342;7.856;2022-12-18T09:06:59;43.40;;;19.35;;
58898;SDS011;44680;48.342;7.856;2022-12-18T09:09:25;43.72;;;18.50;;
58898;SDS011;44680;48.342;7.856;2022-12-18T09:11:50;46.15;;;18.63;;
58898;SDS011;44680;48.342;7.856;2022-12-18T09:14:15;47.88;;;19.00;;
58898;SDS011;44680;48.342;7.856;2022-12-18T09:16:41;42.05;;;18.27;;
58898;SDS011;44680;48.342;7.856;2022-12-18T09:19:06;46.30;;;19.20;;
58898;SDS011;44680;48.342;7.856;2022-12-18T09:21:32;43.58;;;18.73;;
58898;SDS011;44680;48.342;7.856;2022-12-18T09:24:04;46.50;;;19.48;;
58898;SDS011;44680;48.342;7.856;2022-12-18T09:26:30;44.95;;;19.13;;
58898;SDS011;44680;48.342;7.856;2022-12-18T09:28:55;44.78;;;19.45;;
58898;SDS011;44680;48.342;7.856;2022-12-18T09:31:22;46.75;;;20.45;;
58898;SDS011;44680;48.342;7.856;2022-12-18T09:33:48;53.63;;;20.23;;
58898;SDS011;44680;48.342;7.856;2022-12-18T09:36:14;52.55;;;22.20;;
58898;SDS011;44680;48.342;7.856;2022-12-18T09:38:41;42.70;;;17.92;;
58898;SDS011;44680;48.342;7.856;2022-12-18T09:43:53;39.35;;;15.30;;
58898;SDS011;44680;48.342;7.856;2022-12-18T09:46:23;39.42;;;15.20;;
58898;SDS011;44680;48.342;7.856;2022-12-18T09:48:52;36.47;;;14.80;;
58898;SDS011;44680;48.342;7.856;2022-12-18T09:51:22;41.38;;;14.85;;
58898;SDS011;44680;48.342;7.856;2022-12-18T09:54:06;47.20;;;16.05;;
58898;SDS011;44680;48.342;7.856;2022-12-18T09:56:36;42.28;;;15.38;;
58898;SDS011;44680;48.342;7.856;2022-12-18T09:59:03;42.63;;;17.35;;
58898;SDS011;44680;48.342;7.856;2022-12-18T10:01:29;41.30;;;17.48;;
58898;SDS011;44680;48.342;7.856;2022-12-18T10:03:55;40.97;;;16.15;;
58898;SDS011;44680;48.342;7.856;2022-12-18T10:09:02;45.80;;;21.13;;
58898;SDS011;44680;48.342;7.856;2022-12-18T10:11:40;47.03;;;19.70;;
58898;SDS011;44680;48.342;7.856;2022-12-18T10:16:59;55.13;;;20.83;;
58898;SDS011;44680;48.342;7.856;2022-12-18T10:22:13;46.45;;;18.25;;
58898;SDS011;44680;48.342;7.856;2022-12-18T10:27:35;48.33;;;19.83;;
58898;SDS011;44680;48.342;7.856;2022-12-18T10:30:00;58.90;;;24.80;;
58898;SDS011;44680;48.342;7.856;2022-12-18T10:32:27;51.10;;;22.75;;
58898;SDS011;44680;48.342;7.856;2022-12-18T10:34:55;42.58;;;18.70;;
58898;SDS011;44680;48.342;7.856;2022-12-18T10:37:22;34.38;;;15.93;;
58898;SDS011;44680;48.342;7.856;2022-12-18T10:40:04;40.50;;;17.92;;
58898;SDS011;44680;48.342;7.856;2022-12-18T10:42:32;42.38;;;18.33;;
58898;SDS011;44680;48.342;7.856;2022-12-18T10:45:02;39.35;;;16.48;;
58898;SDS011;44680;48.342;7.856;2022-12-18T10:47:33;37.78;;;17.10;;
58898;SDS011;44680;48.342;7.856;2022-12-18T10:49:58;41.22;;;17.77;;
58898;SDS011;44680;48.342;7.856;2022-12-18T10:52:25;38.17;;;18.52;;
58898;SDS011;44680;48.342;7.856;2022-12-18T11:02:54;40.50;;;18.77;;
58898;SDS011;44680;48.342;7.856;2022-12-18T11:05:28;42.15;;;18.95;;
58898;SDS011;44680;48.342;7.856;2022-12-18T11:07:54;42.15;;;18.50;;
58898;SDS011;44680;48.342;7.856;2022-12-18T11:10:20;43.30;;;22.70;;
58898;SDS011;44680;48.342;7.856;2022-12-18T11:12:47;44.83;;;21.73;;
58898;SDS011;44680;48.342;7.856;2022-12-18T11:15:19;55.42;;;29.98;;
58898;SDS011;44680;48.342;7.856;2022-12-18T11:17:46;51.58;;;25.27;;
58898;SDS011;44680;48.342;7.856;2022-12-18T11:23:01;57.25;;;27.15;;
58898;SDS011;44680;48.342;7.856;2022-12-18T11:25:28;44.92;;;24.27;;
58898;SDS011;44680;48.342;7.856;2022-12-18T11:27:55;49.05;;;22.33;;
58898;SDS011;44680;48.342;7.856;2022-12-18T11:30:32;47.17;;;25.15;;
58898;SDS011;44680;48.342;7.856;2022-12-18T11:35:37;46.78;;;24.55;;
58898;SDS011;44680;48.342;7.856;2022-12-18T11:38:16;45.80;;;23.92;;
58898;SDS011;44680;48.342;7.856;2022-12-18T11:40:44;46.95;;;23.83;;
58898;SDS011;44680;48.342;7.856;2022-12-18T11:46:34;57.85;;;29.92;;
58898;SDS011;44680;48.342;7.856;2022-12-18T11:49:13;51.45;;;24.33;;
58898;SDS011;44680;48.342;7.856;2022-12-18T11:51:48;55.63;;;26.58;;
58898;SDS011;44680;48.342;7.856;2022-12-18T11:54:17;47.28;;;22.63;;
58898;SDS011;44680;48.342;7.856;2022-12-18T11:56:46;45.80;;;21.90;;
58898;SDS011;44680;48.342;7.856;2022-12-18T11:59:17;41.88;;;20.95;;
58898;SDS011;44680;48.342;7.856;2022-12-18T12:02:11;43.55;;;21.65;;
58898;SDS011;44680;48.342;7.856;2022-12-18T12:07:53;43.10;;;21.02;;
58898;SDS011;44680;48.342;7.856;2022-12-18T12:10:35;38.63;;;18.63;;
58898;SDS011;44680;48.342;7.856;2022-12-18T12:18:38;40.17;;;19.20;;
58898;SDS011;44680;48.342;7.856;2022-12-18T12:21:47;41.33;;;20.08;;
58898;SDS011;44680;48.342;7.856;2022-12-18T12:26:56;40.40;;;18.88;;
58898;SDS011;44680;48.342;7.856;2022-12-18T12:41:06;42.55;;;21.35;;
58898;SDS011;44680;48.342;7.856;2022-12-18T12:43:53;41.95;;;19.55;;
58898;SDS011;44680;48.342;7.856;2022-12-18T12:46:21;47.40;;;20.70;;
58898;SDS011;44680;48.342;7.856;2022-12-18T12:48:58;43.90;;;19.67;;
58898;SDS011;44680;48.342;7.856;2022-12-18T12:51:26;45.38;;;20.90;;
58898;SDS011;44680;48.342;7.856;2022-12-18T12:53:54;41.80;;;21.02;;
58898;SDS011;44680;48.342;7.856;2022-12-18T12:56:21;42.78;;;20.02;;
58898;SDS011;44680;48.342;7.856;2022-12-18T13:01:49;43.92;;;21.02;;
58898;SDS011;44680;48.342;7.856;2022-12-18T13:04:36;43.58;;;20.80;;
58898;SDS011;44680;48.342;7.856;2022-12-18T13:07:29;50.08;;;25.20;;
58898;SDS011;44680;48.342;7.856;2022-12-18T13:13:06;48.40;;;22.45;;
58898;SDS011;44680;48.342;7.856;2022-12-18T13:16:03;50.67;;;25.10;;
58898;SDS011;44680;48.342;7.856;2022-12-18T13:18:29;52.20;;;24.75;;
58898;SDS011;44680;48.342;7.856;2022-12-18T13:25:50;53.20;;;24.48;;
58898;SDS011;44680;48.342;7.856;2022-12-18T13:28:16;51.92;;;24.98;;
58898;SDS011;44680;48.342;7.856;2022-12-18T13:30:50;45.78;;;22.85;;
58898;SDS011;44680;48.342;7.856;2022-12-18T13:43:44;74.40;;;30.67;;
58898;SDS011;44680;48.342;7.856;2022-12-18T13:51:21;58.63;;;25.65;;
58898;SDS011;44680;48.342;7.856;2022-12-18T13:53:54;54.13;;;26.08;;
58898;SDS011;44680;48.342;7.856;2022-12-18T13:56:23;60.55;;;29.63;;
58898;SDS011;44680;48.342;7.856;2022-12-18T14:01:55;76.13;;;31.35;;
58898;SDS011;44680;48.342;7.856;2022-12-18T14:04:33;72.97;;;29.48;;
58898;SDS011;44680;48.342;7.856;2022-12-18T14:07:06;57.95;;;26.98;;
58898;SDS011;44680;48.342;7.856;2022-12-18T14:09:35;59.53;;;28.25;;
58898;SDS011;44680;48.342;7.856;2022-12-18T14:12:02;61.72;;;29.13;;
58898;SDS011;44680;48.342;7.856;2022-12-18T14:14:47;61.78;;;28.73;;
58898;SDS011;44680;48.342;7.856;2022-12-18T14:17:14;59.08;;;28.50;;
58898;SDS011;44680;48.342;7.856;2022-12-18T14:19:41;64.07;;;30.00;;
58898;SDS011;44680;48.342;7.856;2022-12-18T14:22:13;64.55;;;30.75;;
58898;SDS011;44680;48.342;7.856;2022-12-18T14:24:40;97.72;;;44.17;;
58898;SDS011;44680;48.342;7.856;2022-12-18T14:27:20;154.13;;;76.07;;
58898;SDS011;44680;48.342;7.856;2022-12-18T14:29:47;74.22;;;34.88;;
58898;SDS011;44680;48.342;7.856;2022-12-18T14:32:13;76.85;;;32.22;;
58898;SDS011;44680;48.342;7.856;2022-12-18T14:34:42;82.10;;;34.88;;
58898;SDS011;44680;48.342;7.856;2022-12-18T14:37:12;77.43;;;33.20;;
58898;SDS011;44680;48.342;7.856;2022-12-18T14:39:39;64.25;;;30.95;;
58898;SDS011;44680;48.342;7.856;2022-12-18T14:42:05;68.25;;;30.55;;
58898;SDS011;44680;48.342;7.856;2022-12-18T14:44:30;66.50;;;30.48;;
58898;SDS011;44680;48.342;7.856;2022-12-18T14:46:56;72.13;;;31.83;;
58898;SDS011;44680;48.342;7.856;2022-12-18T14:51:54;63.10;;;28.80;;
58898;SDS011;44680;48.342;7.856;2022-12-18T14:54:22;67.53;;;29.75;;
58898;SDS011;44680;48.342;7.856;2022-12-18T14:56:49;133.18;;;55.67;;
58898;SDS011;44680;48.342;7.856;2022-12-18T14:59:17;114.18;;;51.45;;
58898;SDS011;44680;48.342;7.856;2022-12-18T15:01:46;129.70;;;61.38;;
58898;SDS011;44680;48.342;7.856;2022-12-18T15:09:36;67.82;;;30.08;;
58898;SDS011;44680;48.342;7.856;2022-12-18T15:12:02;65.00;;;29.10;;
58898;SDS011;44680;48.342;7.856;2022-12-18T15:14:32;68.32;;;29.48;;
58898;SDS011;44680;48.342;7.856;2022-12-18T15:17:00;90.30;;;37.17;;
58898;SDS011;44680;48.342;7.856;2022-12-18T15:19:39;71.93;;;30.55;;
58898;SDS011;44680;48.342;7.856;2022-12-18T15:22:16;69.13;;;30.73;;
58898;SDS011;44680;48.342;7.856;2022-12-18T15:24:43;66.72;;;31.10;;
58898;SDS011;44680;48.342;7.856;2022-12-18T15:32:38;62.78;;;27.85;;
58898;SDS011;44680;48.342;7.856;2022-12-18T15:37:35;64.20;;;28.88;;
58898;SDS011;44680;48.342;7.856;2022-12-18T15:40:01;62.05;;;30.25;;
58898;SDS011;44680;48.342;7.856;2022-12-18T15:42:27;61.30;;;27.70;;
58898;SDS011;44680;48.342;7.856;2022-12-18T15:45:11;60.72;;;27.17;;
58898;SDS011;44680;48.342;7.856;2022-12-18T15:47:37;62.25;;;29.98;;
58898;SDS011;44680;48.342;7.856;2022-12-18T15:50:03;63.20;;;29.27;;
58898;SDS011;44680;48.342;7.856;2022-12-18T15:52:29;61.35;;;29.15;;
58898;SDS011;44680;48.342;7.856;2022-12-18T15:54:54;69.03;;;29.38;;
58898;SDS011;44680;48.342;7.856;2022-12-18T15:57:38;63.92;;;29.48;;
58898;SDS011;44680;48.342;7.856;2022-12-18T16:00:03;69.47;;;30.63;;
58898;SDS011;44680;48.342;7.856;2022-12-18T16:02:29;62.95;;;28.90;;
58898;SDS011;44680;48.342;7.856;2022-12-18T16:04:54;65.90;;;30.23;;
58898;SDS011;44680;48.342;7.856;2022-12-18T16:07:20;66.55;;;29.17;;
58898;SDS011;44680;48.342;7.856;2022-12-18T16:09:45;67.65;;;30.00;;
58898;SDS011;44680;48.342;7.856;2022-12-18T16:12:18;64.18;;;29.83;;
58898;SDS011;44680;48.342;7.856;2022-12-18T16:14:45;67.80;;;31.90;;
58898;SDS011;44680;48.342;7.856;2022-12-18T16:17:10;72.72;;;30.95;;
58898;SDS011;44680;48.342;7.856;2022-12-18T16:19:36;70.00;;;31.25;;
58898;SDS011;44680;48.342;7.856;2022-12-18T16:22:02;72.65;;;32.90;;
58898;SDS011;44680;48.342;7.856;2022-12-18T16:24:29;76.43;;;34.92;;
58898;SDS011;44680;48.342;7.856;2022-12-18T16:26:57;74.05;;;33.28;;
58898;SDS011;44680;48.342;7.856;2022-12-18T16:29:24;74.03;;;31.05;;
58898;SDS011;44680;48.342;7.856;2022-12-18T16:31:52;60.70;;;28.15;;
58898;SDS011;44680;48.342;7.856;2022-12-18T16:34:25;66.15;;;29.67;;
58898;SDS011;44680;48.342;7.856;2022-12-18T16:36:55;70.55;;;29.95;;
58898;SDS011;44680;48.342;7.856;2022-12-18T16:39:21;68.35;;;30.35;;
58898;SDS011;44680;48.342;7.856;2022-12-18T16:41:46;64.75;;;28.88;;
58898;SDS011;44680;48.342;7.856;2022-12-18T16:44:12;67.63;;;30.05;;
58898;SDS011;44680;48.342;7.856;2022-12-18T16:46:38;74.97;;;33.83;;
58898;SDS011;44680;48.342;7.856;2022-12-18T16:49:04;69.85;;;30.48;;